createdAt,value
2022-10-29T00:00:28.153Z,1015.49
2022-10-29T00:01:28.364Z,1015.44
2022-10-29T00:02:28.229Z,1015.44
2022-10-29T00:03:28.164Z,1015.43
2022-10-29T00:04:28.174Z,1015.45
2022-10-29T00:05:28.189Z,1015.45
2022-10-29T00:06:28.198Z,1015.44
2022-10-29T00:07:28.214Z,1015.44
2022-10-29T00:08:28.215Z,1015.39
2022-10-29T00:09:28.224Z,1015.38
2022-10-29T00:10:28.228Z,1015.34
2022-10-29T00:11:28.243Z,1015.32
2022-10-29T00:12:28.247Z,1015.31
2022-10-29T00:13:33.704Z,1015.35
2022-10-29T00:14:28.272Z,1015.29
2022-10-29T00:15:28.280Z,1015.27
2022-10-29T00:16:28.282Z,1015.30
2022-10-29T00:17:28.317Z,1015.29
2022-10-29T00:18:28.301Z,1015.35
2022-10-29T00:19:28.308Z,1015.34
2022-10-29T00:20:28.326Z,1015.36
2022-10-29T00:21:28.332Z,1015.35
2022-10-29T00:22:28.338Z,1015.35
2022-10-29T00:23:28.345Z,1015.32
2022-10-29T00:24:28.361Z,1015.35
2022-10-29T00:25:28.374Z,1015.34
2022-10-29T00:26:28.380Z,1015.32
2022-10-29T00:27:28.380Z,1015.36
2022-10-29T00:28:28.397Z,1015.40
2022-10-29T00:29:28.398Z,1015.40
2022-10-29T00:30:28.416Z,1015.46
2022-10-29T00:31:28.486Z,1015.50
2022-10-29T00:32:28.424Z,1015.48
2022-10-29T00:33:28.457Z,1015.50
2022-10-29T00:34:28.442Z,1015.51
2022-10-29T00:35:28.454Z,1015.46
2022-10-29T00:36:28.468Z,1015.52
2022-10-29T00:37:28.470Z,1015.51
2022-10-29T00:38:28.486Z,1015.58
2022-10-29T00:39:28.488Z,1015.50
2022-10-29T00:40:28.496Z,1015.54
2022-10-29T00:41:28.515Z,1015.50
2022-10-29T00:42:28.522Z,1015.49
2022-10-29T00:43:28.532Z,1015.45
2022-10-29T00:44:28.538Z,1015.45
2022-10-29T00:45:28.550Z,1015.46
2022-10-29T00:46:28.612Z,1015.46
2022-10-29T00:47:28.560Z,1015.49
2022-10-29T00:48:28.568Z,1015.46
2022-10-29T00:49:28.606Z,1015.42
2022-10-29T00:50:28.594Z,1015.42
2022-10-29T00:51:28.603Z,1015.39
2022-10-29T00:52:28.615Z,1015.46
2022-10-29T00:53:28.619Z,1015.43
2022-10-29T00:54:28.630Z,1015.45
2022-10-29T00:55:28.637Z,1015.50
2022-10-29T00:56:28.639Z,1015.49
2022-10-29T00:57:28.655Z,1015.49
2022-10-29T00:58:28.657Z,1015.54
2022-10-29T00:59:28.675Z,1015.51
2022-10-29T01:00:28.683Z,1015.51
2022-10-29T01:01:28.827Z,1015.52
2022-10-29T01:02:28.843Z,1015.54
2022-10-29T01:03:28.709Z,1015.55
2022-10-29T01:04:28.710Z,1015.57
2022-10-29T01:05:28.747Z,1015.59
2022-10-29T01:06:28.738Z,1015.60
2022-10-29T01:07:28.750Z,1015.62
2022-10-29T01:08:28.752Z,1015.62
2022-10-29T01:09:28.756Z,1015.62
2022-10-29T01:10:28.764Z,1015.59
2022-10-29T01:11:28.783Z,1015.61
2022-10-29T01:12:28.780Z,1015.65
2022-10-29T01:13:28.799Z,1015.68
2022-10-29T01:14:28.798Z,1015.69
2022-10-29T01:15:28.809Z,1015.74
2022-10-29T01:16:28.815Z,1015.74
2022-10-29T01:17:28.833Z,1015.74
2022-10-29T01:18:28.842Z,1015.74
2022-10-29T01:19:28.962Z,1015.75
2022-10-29T01:20:28.851Z,1015.77
2022-10-29T01:21:28.966Z,1015.76
2022-10-29T01:22:28.875Z,1015.78
2022-10-29T01:23:28.877Z,1015.81
2022-10-29T01:24:28.899Z,1015.77
2022-10-29T01:25:28.899Z,1015.78
2022-10-29T01:26:28.916Z,1015.78
2022-10-29T01:27:28.928Z,1015.79
2022-10-29T01:28:28.923Z,1015.81
2022-10-29T01:29:28.939Z,1015.83
2022-10-29T01:30:28.947Z,1015.85
2022-10-29T01:31:28.948Z,1015.88
2022-10-29T01:32:28.957Z,1015.89
2022-10-29T01:33:28.971Z,1015.88
2022-10-29T01:34:28.985Z,1015.87
2022-10-29T01:35:28.982Z,1015.88
2022-10-29T01:36:28.998Z,1015.86
2022-10-29T01:37:29.020Z,1015.87
2022-10-29T01:38:29.011Z,1015.92
2022-10-29T01:39:29.017Z,1015.90
2022-10-29T01:45:13.262Z,1015.95
2022-10-29T01:46:13.271Z,1015.93
2022-10-29T01:47:13.285Z,1015.96
2022-10-29T01:48:13.297Z,1015.99
2022-10-29T01:52:29.250Z,1015.99
2022-10-29T01:53:29.281Z,1015.99
2022-10-29T01:54:29.266Z,1016.00
2022-10-29T01:55:29.283Z,1015.96
2022-10-29T01:56:29.285Z,1015.99
2022-10-29T01:57:29.293Z,1015.99
2022-10-29T02:07:48.406Z,1016.03
2022-10-29T02:08:48.431Z,1015.99
2022-10-29T02:09:48.421Z,1015.98
2022-10-29T02:10:48.426Z,1015.93
2022-10-29T02:11:48.438Z,1015.88
2022-10-29T02:12:48.442Z,1015.93
2022-10-29T02:13:48.453Z,1015.94
2022-10-29T02:14:48.462Z,1015.99
2022-10-29T02:15:48.482Z,1016.00
2022-10-29T02:16:48.475Z,1015.97
2022-10-29T02:17:48.478Z,1015.95
2022-10-29T02:59:10.791Z,1015.92
2022-10-29T03:00:07.177Z,1015.95
2022-10-29T03:01:07.177Z,1015.96
2022-10-29T03:02:07.329Z,1015.97
2022-10-29T03:03:07.200Z,1015.96
2022-10-29T03:04:07.208Z,1015.95
2022-10-29T03:05:07.215Z,1015.93
2022-10-29T03:06:07.214Z,1015.92
2022-10-29T03:07:07.225Z,1015.97
2022-10-29T03:08:07.234Z,1016.02
2022-10-29T04:28:42.960Z,1016.20
2022-10-29T04:29:35.440Z,1016.28
2022-10-29T04:30:35.442Z,1016.34
2022-10-29T04:31:35.451Z,1016.35
2022-10-29T04:32:35.459Z,1016.37
2022-10-29T04:36:01.312Z,1016.26
2022-10-29T04:37:01.322Z,1016.24
2022-10-29T04:38:01.327Z,1016.20
2022-10-29T04:39:01.342Z,1016.16
2022-10-29T04:40:01.345Z,1016.19
2022-10-29T04:48:57.284Z,1016.17
2022-10-29T04:49:57.182Z,1016.15
2022-10-29T04:50:57.198Z,1016.18
2022-10-29T04:51:57.198Z,1016.22
2022-10-29T05:42:47.231Z,1016.31
2022-10-29T05:43:42.494Z,1016.32
2022-10-29T05:44:42.507Z,1016.34
2022-10-29T05:45:42.523Z,1016.35
2022-10-29T05:46:42.514Z,1016.33
2022-10-29T05:47:42.521Z,1016.33
2022-10-29T05:48:42.528Z,1016.35
2022-10-29T05:49:42.541Z,1016.36
2022-10-29T05:50:42.544Z,1016.36
2022-10-29T05:51:42.555Z,1016.38
2022-10-29T05:52:42.556Z,1016.35
2022-10-29T05:54:25.106Z,1016.32
2022-10-29T05:55:25.121Z,1016.31
2022-10-29T05:56:25.121Z,1016.30
2022-10-29T05:57:25.134Z,1016.29
2022-10-29T06:01:16.099Z,1016.33
2022-10-29T06:02:16.189Z,1016.33
2022-10-29T06:03:16.135Z,1016.37
2022-10-29T09:09:18.042Z,1015.87
2022-10-29T09:10:17.826Z,1015.84
2022-10-29T09:11:17.832Z,1015.75
2022-10-29T09:13:00.574Z,1015.84
2022-10-29T09:15:00.410Z,1015.85
2022-10-29T09:16:00.423Z,1015.89
2022-10-29T09:17:00.435Z,1015.89
2022-10-29T09:18:00.489Z,1015.85
2022-10-29T09:19:00.469Z,1015.89
2022-10-29T09:20:00.476Z,1015.96
2022-10-29T09:23:00.656Z,1015.89
2022-10-29T09:24:00.668Z,1015.94
2022-10-29T09:25:00.713Z,1015.97
2022-10-29T09:26:00.702Z,1015.95
2022-10-29T09:27:00.713Z,1015.92
2022-10-29T09:28:01.736Z,1015.97
2022-10-29T09:29:00.740Z,1016.02
2022-10-29T09:30:00.753Z,1016.01
2022-10-29T09:31:00.768Z,1015.97
2022-10-29T09:32:00.783Z,1016.02
2022-10-29T09:33:00.812Z,1016.01
2022-10-29T09:34:01.929Z,1015.93
2022-10-29T09:35:01.038Z,1015.91
2022-10-29T09:36:00.851Z,1015.89
2022-10-29T09:37:00.866Z,1015.83
2022-10-29T09:38:01.225Z,1015.84
2022-10-29T09:39:00.889Z,1015.75
2022-10-29T09:40:00.902Z,1015.83
2022-10-29T09:41:00.947Z,1015.79
2022-10-29T09:42:00.933Z,1015.79
2022-10-29T09:43:43.509Z,1015.79
2022-10-29T09:44:43.519Z,1015.80
2022-10-29T09:45:43.541Z,1015.71
2022-10-29T09:46:43.548Z,1015.72
2022-10-29T09:48:31.135Z,1015.69
2022-10-29T09:49:31.139Z,1015.66
2022-10-29T09:50:31.157Z,1015.68
2022-10-29T09:51:31.172Z,1015.69
2022-10-29T09:52:31.200Z,1015.73
2022-10-29T09:53:31.204Z,1015.73
2022-10-29T09:54:31.222Z,1015.74
2022-10-29T09:55:31.240Z,1015.75
2022-10-29T09:56:31.275Z,1015.75
2022-10-29T09:58:43.892Z,1015.73
2022-10-29T09:59:43.907Z,1015.71
2022-10-29T10:00:43.921Z,1015.69
2022-10-29T10:01:43.989Z,1015.70
2022-10-29T10:03:43.969Z,1015.57
2022-10-29T10:04:43.978Z,1015.53
2022-10-29T10:05:43.998Z,1015.54
2022-10-29T10:06:44.008Z,1015.50
2022-10-29T10:07:44.028Z,1015.46
2022-10-29T10:08:44.046Z,1015.45
2022-10-29T10:09:44.059Z,1015.43
2022-10-29T10:10:44.076Z,1015.34
2022-10-29T10:11:44.113Z,1015.31
2022-10-29T10:12:44.114Z,1015.32
2022-10-29T10:13:44.120Z,1015.32
2022-10-29T10:14:44.131Z,1015.30
2022-10-29T10:15:44.153Z,1015.33
2022-10-29T10:16:44.168Z,1015.30
2022-10-29T10:17:44.181Z,1015.29
2022-10-29T10:19:44.202Z,1015.26
2022-10-29T10:20:44.232Z,1015.22
2022-10-29T10:21:44.239Z,1015.25
2022-10-29T10:22:44.253Z,1015.25
2022-10-29T10:23:44.266Z,1015.32
2022-10-29T10:24:44.281Z,1015.33
2022-10-29T10:25:44.348Z,1015.34
2022-10-29T10:26:44.313Z,1015.32
2022-10-29T10:27:44.338Z,1015.31
2022-10-29T10:28:44.332Z,1015.25
2022-10-29T10:29:44.356Z,1015.21
2022-10-29T10:30:44.362Z,1015.18
2022-10-29T10:31:44.385Z,1015.15
2022-10-29T10:32:44.391Z,1015.14
2022-10-29T10:33:44.406Z,1015.11
2022-10-29T10:34:44.431Z,1015.10
2022-10-29T10:35:44.437Z,1015.07
2022-10-29T10:36:44.453Z,1015.09
2022-10-29T10:37:47.098Z,1015.05
2022-10-29T10:38:44.494Z,1015.05
2022-10-29T10:39:44.505Z,1015.01
2022-10-29T10:40:44.516Z,1014.95
2022-10-29T10:41:44.528Z,1014.94
2022-10-29T10:42:44.554Z,1014.88
2022-10-29T10:43:44.577Z,1014.88
2022-10-29T10:44:44.582Z,1014.89
2022-10-29T10:45:44.596Z,1014.89
2022-10-29T10:46:44.604Z,1014.91
2022-10-29T10:47:44.625Z,1014.93
2022-10-29T10:48:44.642Z,1014.90
2022-10-29T10:49:44.650Z,1014.85
2022-10-29T10:50:44.663Z,1014.78
2022-10-29T10:51:44.685Z,1014.80
2022-10-29T10:52:44.700Z,1014.79
2022-10-29T10:53:44.708Z,1014.79
2022-10-29T10:54:44.832Z,1014.81
2022-10-29T10:55:44.742Z,1014.82
2022-10-29T10:56:44.756Z,1014.81
2022-10-29T10:57:44.771Z,1014.83
2022-10-29T10:58:44.777Z,1014.86
2022-10-29T10:59:44.814Z,1014.83
2022-10-29T11:00:44.887Z,1014.83
2022-10-29T11:01:44.963Z,1014.82
2022-10-29T11:02:44.835Z,1014.83
2022-10-29T11:03:44.850Z,1014.83
2022-10-29T11:04:44.861Z,1014.84
2022-10-29T11:05:44.885Z,1014.82
2022-10-29T11:06:44.890Z,1014.81
2022-10-29T11:07:44.907Z,1014.82
2022-10-29T11:08:44.920Z,1014.86
2022-10-29T11:09:44.941Z,1014.84
2022-10-29T11:10:44.954Z,1014.85
2022-10-29T11:11:44.965Z,1014.84
2022-10-29T11:12:44.982Z,1014.83
2022-10-29T11:13:44.993Z,1014.85
2022-10-29T11:14:45.009Z,1014.86
2022-10-29T11:15:45.037Z,1014.87
2022-10-29T11:16:45.037Z,1014.86
2022-10-29T11:17:47.737Z,1014.89
2022-10-29T11:18:45.063Z,1014.90
2022-10-29T11:19:45.072Z,1014.88
2022-10-29T11:20:45.087Z,1014.92
2022-10-29T11:21:45.096Z,1014.95
2022-10-29T11:22:45.117Z,1014.93
2022-10-29T11:23:45.124Z,1014.94
2022-10-29T11:24:45.135Z,1014.90
2022-10-29T11:25:45.147Z,1014.92
2022-10-29T11:26:45.164Z,1014.92
2022-10-29T11:27:45.176Z,1014.94
2022-10-29T11:28:45.190Z,1014.95
2022-10-29T11:29:49.145Z,1014.87
2022-10-29T11:30:45.220Z,1014.86
2022-10-29T11:31:45.254Z,1014.81
2022-10-29T11:32:45.238Z,1014.75
2022-10-29T11:33:45.250Z,1014.69
2022-10-29T11:34:46.681Z,1014.63
2022-10-29T11:35:45.281Z,1014.66
2022-10-29T11:36:45.290Z,1014.64
2022-10-29T11:37:45.301Z,1014.59
2022-10-29T11:38:45.343Z,1014.59
2022-10-29T11:39:45.326Z,1014.58
2022-10-29T11:40:45.339Z,1014.59
2022-10-29T11:41:45.357Z,1014.58
2022-10-29T11:42:45.367Z,1014.59
2022-10-29T11:43:45.386Z,1014.58
2022-10-29T11:44:45.397Z,1014.56
2022-10-29T11:45:45.405Z,1014.59
2022-10-29T11:46:45.416Z,1014.56
2022-10-29T11:47:45.581Z,1014.52
2022-10-29T11:48:45.441Z,1014.54
2022-10-29T11:49:45.464Z,1014.46
2022-10-29T11:50:45.470Z,1014.50
2022-10-29T11:51:45.487Z,1014.52
2022-10-29T11:52:45.498Z,1014.47
2022-10-29T11:53:45.514Z,1014.50
2022-10-29T11:54:45.522Z,1014.48
2022-10-29T11:55:45.533Z,1014.46
2022-10-29T11:56:45.545Z,1014.42
2022-10-29T11:57:45.671Z,1014.40
2022-10-29T11:58:45.571Z,1014.38
2022-10-29T11:59:45.592Z,1014.33
2022-10-29T12:00:45.604Z,1014.31
2022-10-29T12:01:45.726Z,1014.28
2022-10-29T12:02:45.631Z,1014.24
2022-10-29T12:03:45.695Z,1014.18
2022-10-29T12:04:45.654Z,1014.20
2022-10-29T12:05:45.744Z,1014.17
2022-10-29T12:06:45.673Z,1014.15
2022-10-29T12:07:45.692Z,1014.10
2022-10-29T12:08:45.698Z,1014.10
2022-10-29T12:09:45.710Z,1014.08
2022-10-29T12:10:45.732Z,1014.11
2022-10-29T12:11:45.762Z,1014.10
2022-10-29T12:12:45.746Z,1014.14
2022-10-29T12:13:45.769Z,1014.17
2022-10-29T12:14:45.775Z,1014.15
2022-10-29T12:15:45.785Z,1014.14
2022-10-29T12:16:45.800Z,1014.18
2022-10-29T12:17:45.957Z,1014.11
2022-10-29T12:18:46.024Z,1014.10
2022-10-29T12:19:45.866Z,1014.08
2022-10-29T12:20:45.862Z,1014.11
2022-10-29T12:21:45.874Z,1014.06
2022-10-29T12:22:45.877Z,1014.09
2022-10-29T12:23:45.893Z,1014.08
2022-10-29T12:24:45.905Z,1014.10
2022-10-29T12:25:45.918Z,1014.09
2022-10-29T12:26:45.939Z,1014.09
2022-10-29T12:27:45.945Z,1014.10
2022-10-29T12:28:45.966Z,1014.07
2022-10-29T12:29:45.980Z,1014.06
2022-10-29T12:30:46.197Z,1014.07
2022-10-29T12:31:46.001Z,1014.07
2022-10-29T12:32:46.028Z,1014.04
2022-10-29T12:33:46.031Z,1014.01
2022-10-29T12:34:46.044Z,1014.00
2022-10-29T12:35:46.088Z,1013.97
2022-10-29T12:36:46.074Z,1013.97
2022-10-29T12:37:46.086Z,1013.93
2022-10-29T12:38:46.108Z,1013.89
2022-10-29T12:39:46.116Z,1013.85
2022-10-29T12:40:46.137Z,1013.85
2022-10-29T12:41:46.152Z,1013.81
2022-10-29T12:42:46.165Z,1013.80
2022-10-29T12:43:46.171Z,1013.83
2022-10-29T12:44:46.188Z,1013.87
2022-10-29T12:46:14.378Z,1013.89
2022-10-29T12:46:46.222Z,1013.89
2022-10-29T12:47:46.233Z,1013.84
2022-10-29T12:48:46.250Z,1013.80
2022-10-29T12:49:46.257Z,1013.81
2022-10-29T12:50:46.272Z,1013.81
2022-10-29T12:51:46.411Z,1013.79
2022-10-29T12:52:46.306Z,1013.85
2022-10-29T12:53:46.323Z,1013.84
2022-10-29T12:55:28.889Z,1013.82
2022-10-29T12:56:28.902Z,1013.89
2022-10-29T13:06:48.090Z,1013.91
2022-10-29T13:07:48.170Z,1013.91
2022-10-29T13:08:48.133Z,1013.87
2022-10-29T13:09:48.577Z,1013.87
2022-10-29T13:10:48.165Z,1013.85
2022-10-29T13:11:48.173Z,1013.82
2022-10-29T13:12:48.196Z,1013.79
2022-10-29T13:13:48.205Z,1013.82
2022-10-29T13:14:48.225Z,1013.83
2022-10-29T13:15:48.239Z,1013.81
2022-10-29T13:16:48.257Z,1013.80
2022-10-29T13:17:48.272Z,1013.83
2022-10-29T13:18:48.293Z,1013.82
2022-10-29T13:20:55.925Z,1013.80
2022-10-29T13:21:55.934Z,1013.81
2022-10-29T13:22:56.177Z,1013.82
2022-10-29T13:23:55.969Z,1013.83
2022-10-29T13:24:55.985Z,1013.76
2022-10-29T13:25:55.993Z,1013.78
2022-10-29T13:26:56.007Z,1013.75
2022-10-29T13:27:56.026Z,1013.74
2022-10-29T13:28:56.050Z,1013.71
2022-10-29T13:29:56.057Z,1013.67
2022-10-29T13:30:56.078Z,1013.61
2022-10-29T13:32:00.689Z,1013.64
2022-10-29T13:32:56.408Z,1013.65
2022-10-29T13:33:56.118Z,1013.68
2022-10-29T13:34:56.144Z,1013.70
2022-10-29T13:35:56.152Z,1013.63
2022-10-29T13:36:56.173Z,1013.61
2022-10-29T13:37:56.185Z,1013.62
2022-10-29T13:39:05.682Z,1013.58
2022-10-29T13:39:56.207Z,1013.60
2022-10-29T13:40:56.225Z,1013.56
2022-10-29T13:41:56.247Z,1013.57
2022-10-29T13:42:56.587Z,1013.63
2022-10-29T13:43:56.265Z,1013.63
2022-10-29T13:44:56.282Z,1013.64
2022-10-29T13:45:56.295Z,1013.64
2022-10-29T13:46:56.307Z,1013.60
2022-10-29T13:47:56.328Z,1013.65
2022-10-29T13:48:56.335Z,1013.62
2022-10-29T13:49:56.361Z,1013.61
2022-10-29T13:50:56.371Z,1013.61
2022-10-29T13:51:56.476Z,1013.60
2022-10-29T13:52:56.724Z,1013.60
2022-10-29T13:53:56.413Z,1013.59
2022-10-29T13:54:56.440Z,1013.62
2022-10-29T13:55:56.432Z,1013.66
2022-10-29T13:56:56.442Z,1013.66
2022-10-29T13:57:56.652Z,1013.63
2022-10-29T13:58:56.476Z,1013.59
2022-10-29T13:59:56.484Z,1013.59
2022-10-29T14:00:56.554Z,1013.57
2022-10-29T14:01:56.608Z,1013.55
2022-10-29T14:02:56.532Z,1013.61
2022-10-29T14:03:56.544Z,1013.56
2022-10-29T14:04:56.559Z,1013.61
2022-10-29T14:05:56.562Z,1013.58
2022-10-29T14:06:56.577Z,1013.59
2022-10-29T14:07:56.958Z,1013.63
2022-10-29T14:08:56.610Z,1013.63
2022-10-29T14:09:56.618Z,1013.64
2022-10-29T14:10:56.650Z,1013.68
2022-10-29T14:11:56.642Z,1013.68
2022-10-29T14:12:56.952Z,1013.67
2022-10-29T14:13:56.670Z,1013.64
2022-10-29T14:14:56.690Z,1013.65
2022-10-29T14:15:56.695Z,1013.66
2022-10-29T14:16:56.715Z,1013.72
2022-10-29T14:17:56.721Z,1013.75
2022-10-29T14:18:56.733Z,1013.77
2022-10-29T14:19:56.755Z,1013.76
2022-10-29T14:20:56.759Z,1013.73
2022-10-29T14:21:56.771Z,1013.74
2022-10-29T14:22:57.203Z,1013.72
2022-10-29T14:23:56.796Z,1013.74
2022-10-29T14:24:56.831Z,1013.76
2022-10-29T14:25:56.824Z,1013.72
2022-10-29T14:26:56.859Z,1013.67
2022-10-29T14:27:57.279Z,1013.71
2022-10-29T14:28:56.864Z,1013.73
2022-10-29T14:29:56.886Z,1013.74
2022-10-29T14:30:56.890Z,1013.74
2022-10-29T14:31:56.911Z,1013.71
2022-10-29T14:32:56.927Z,1013.70
2022-10-29T14:33:56.937Z,1013.71
2022-10-29T14:34:56.950Z,1013.70
2022-10-29T14:35:56.969Z,1013.66
2022-10-29T14:36:56.969Z,1013.67
2022-10-29T14:37:57.407Z,1013.68
2022-10-29T14:38:57.003Z,1013.68
2022-10-29T14:39:59.244Z,1013.66
2022-10-29T14:40:57.031Z,1013.63
2022-10-29T14:41:57.036Z,1013.60
2022-10-29T14:42:57.509Z,1013.65
2022-10-29T14:43:57.069Z,1013.60
2022-10-29T14:44:57.072Z,1013.65
2022-10-29T14:45:57.092Z,1013.63
2022-10-29T14:46:58.007Z,1013.65
2022-10-29T14:47:57.118Z,1013.63
2022-10-29T14:48:57.152Z,1013.64
2022-10-29T14:49:57.151Z,1013.64
2022-10-29T14:50:57.155Z,1013.66
2022-10-29T14:51:57.161Z,1013.64
2022-10-29T14:52:57.518Z,1013.62
2022-10-29T14:53:57.185Z,1013.61
2022-10-29T14:54:57.205Z,1013.58
2022-10-29T14:55:57.210Z,1013.59
2022-10-29T14:56:57.235Z,1013.59
2022-10-29T14:57:57.235Z,1013.57
2022-10-29T14:58:57.279Z,1013.61
2022-10-29T14:59:57.258Z,1013.58
2022-10-29T15:00:57.361Z,1013.61
2022-10-29T15:02:05.640Z,1013.58
2022-10-29T15:02:57.920Z,1013.61
2022-10-29T15:03:57.307Z,1013.61
2022-10-29T15:04:57.329Z,1013.57
2022-10-29T15:05:57.330Z,1013.55
2022-10-29T15:06:57.351Z,1013.57
2022-10-29T15:07:57.361Z,1013.57
2022-10-29T15:08:57.373Z,1013.56
2022-10-29T15:09:57.386Z,1013.63
2022-10-29T15:10:57.398Z,1013.61
2022-10-29T15:11:57.411Z,1013.58
2022-10-29T15:12:57.849Z,1013.57
2022-10-29T15:13:57.432Z,1013.59
2022-10-29T15:14:57.459Z,1013.60
2022-10-29T15:15:57.450Z,1013.60
2022-10-29T15:16:57.468Z,1013.59
2022-10-29T15:17:57.830Z,1013.65
2022-10-29T15:18:57.482Z,1013.64
2022-10-29T15:19:57.503Z,1013.71
2022-10-29T15:20:57.509Z,1013.70
2022-10-29T15:22:40.076Z,1013.74
2022-10-29T15:23:40.085Z,1013.74
2022-10-29T15:24:40.088Z,1013.76
2022-10-29T15:25:40.106Z,1013.73
2022-10-29T15:26:40.111Z,1013.76
2022-10-29T15:27:40.123Z,1013.73
2022-10-29T15:28:40.133Z,1013.77
2022-10-29T15:29:43.062Z,1013.73
2022-10-29T15:30:40.175Z,1013.72
2022-10-29T15:31:40.168Z,1013.71
2022-10-29T15:32:40.180Z,1013.65
2022-10-29T15:34:22.743Z,1013.66
2022-10-29T15:36:50.384Z,1013.63
2022-10-29T15:37:50.402Z,1013.61
2022-10-29T15:38:52.386Z,1013.59
2022-10-29T15:39:50.421Z,1013.59
2022-10-29T15:40:50.433Z,1013.58
2022-10-29T15:41:50.440Z,1013.58
2022-10-29T15:42:50.458Z,1013.55
2022-10-29T15:43:50.459Z,1013.51
2022-10-29T15:44:50.477Z,1013.49
2022-10-29T15:45:50.511Z,1013.50
2022-10-29T15:46:50.495Z,1013.51
2022-10-29T15:47:50.502Z,1013.51
2022-10-29T15:50:13.144Z,1013.50
2022-10-29T15:51:13.160Z,1013.52
2022-10-29T15:52:13.163Z,1013.52
2022-10-29T15:53:13.174Z,1013.54
2022-10-29T15:54:13.193Z,1013.57
2022-10-29T15:55:13.204Z,1013.59
2022-10-29T16:09:24.033Z,1013.48
2022-10-29T16:10:24.011Z,1013.54
2022-10-29T16:11:24.034Z,1013.60
2022-10-29T16:12:24.038Z,1013.65
2022-10-29T16:13:24.040Z,1013.62
2022-10-29T16:14:24.052Z,1013.58
2022-10-29T16:15:24.142Z,1013.56
2022-10-29T16:16:24.087Z,1013.57
2022-10-29T16:17:24.087Z,1013.57
2022-10-29T16:18:24.101Z,1013.60
2022-10-29T16:19:24.102Z,1013.64
2022-10-29T16:20:24.110Z,1013.67
2022-10-29T16:21:24.126Z,1013.67
2022-10-29T16:22:24.141Z,1013.66
2022-10-29T16:23:24.140Z,1013.68
2022-10-29T16:24:24.152Z,1013.68
2022-10-29T16:25:24.203Z,1013.66
2022-10-29T16:26:24.172Z,1013.65
2022-10-29T16:27:24.186Z,1013.65
2022-10-29T16:28:24.192Z,1013.61
2022-10-29T16:29:24.207Z,1013.57
2022-10-29T16:30:24.373Z,1013.62
2022-10-29T16:31:24.222Z,1013.59
2022-10-29T16:32:24.240Z,1013.56
2022-10-29T16:33:24.242Z,1013.57
2022-10-29T16:34:24.865Z,1013.58
2022-10-29T16:35:24.260Z,1013.60
2022-10-29T16:36:24.279Z,1013.61
2022-10-29T16:37:24.282Z,1013.63
2022-10-29T16:38:24.292Z,1013.60
2022-10-29T16:39:24.307Z,1013.60
2022-10-29T16:40:24.319Z,1013.59
2022-10-29T16:41:24.417Z,1013.60
2022-10-29T16:42:24.339Z,1013.57
2022-10-29T16:43:24.348Z,1013.58
2022-10-29T16:44:24.359Z,1013.65
2022-10-29T16:45:24.367Z,1013.66
2022-10-29T16:46:24.380Z,1013.62
2022-10-29T16:47:24.384Z,1013.58
2022-10-29T16:48:24.398Z,1013.57
2022-10-29T16:49:24.408Z,1013.61
2022-10-29T16:50:24.419Z,1013.63
2022-10-29T16:51:24.424Z,1013.66
2022-10-29T16:52:28.894Z,1013.66
2022-10-29T16:53:24.442Z,1013.66
2022-10-29T16:54:24.457Z,1013.69
2022-10-29T16:55:24.461Z,1013.69
2022-10-29T16:56:24.479Z,1013.67
2022-10-29T16:57:24.502Z,1013.69
2022-10-29T16:58:24.492Z,1013.71
2022-10-29T16:59:24.508Z,1013.71
2022-10-29T17:00:24.509Z,1013.72
2022-10-29T17:01:24.533Z,1013.71
2022-10-29T17:02:24.539Z,1013.69
2022-10-29T17:03:24.547Z,1013.70
2022-10-29T17:04:24.628Z,1013.70
2022-10-29T17:05:24.560Z,1013.74
2022-10-29T17:06:24.582Z,1013.74
2022-10-29T17:07:24.585Z,1013.73
2022-10-29T17:08:24.596Z,1013.74
2022-10-29T17:09:25.691Z,1013.75
2022-10-29T17:10:24.609Z,1013.73
2022-10-29T17:16:08.893Z,1013.77
2022-10-29T17:17:08.871Z,1013.73
2022-10-29T17:19:06.464Z,1013.69
2022-10-29T17:20:06.476Z,1013.72
2022-10-29T17:21:06.477Z,1013.71
2022-10-29T17:22:06.485Z,1013.71
2022-10-29T17:23:06.495Z,1013.72
2022-10-29T17:24:07.947Z,1013.75
2022-10-29T17:25:06.522Z,1013.74
2022-10-29T17:26:06.530Z,1013.75
2022-10-29T17:27:06.536Z,1013.72
2022-10-29T17:28:06.561Z,1013.77
2022-10-29T17:29:06.555Z,1013.76
2022-10-29T17:30:06.570Z,1013.80
2022-10-29T17:31:06.574Z,1013.76
2022-10-29T17:32:06.606Z,1013.73
2022-10-29T17:33:06.592Z,1013.75
2022-10-29T17:34:06.601Z,1013.74
2022-10-29T17:35:06.621Z,1013.78
2022-10-29T17:36:06.627Z,1013.76
2022-10-29T17:37:06.637Z,1013.78
2022-10-29T17:38:06.645Z,1013.76
2022-10-29T17:39:06.649Z,1013.75
2022-10-29T17:40:08.087Z,1013.73
2022-10-29T17:41:06.695Z,1013.75
2022-10-29T17:42:06.688Z,1013.77
2022-10-29T17:43:06.691Z,1013.79
2022-10-29T17:44:06.696Z,1013.78
2022-10-29T17:45:06.705Z,1013.78
2022-10-29T17:46:06.726Z,1013.77
2022-10-29T17:47:06.726Z,1013.79
2022-10-29T17:48:06.762Z,1013.82
2022-10-29T17:49:06.743Z,1013.79
2022-10-29T17:50:06.752Z,1013.79
2022-10-29T17:51:06.761Z,1013.77
2022-10-29T17:52:06.770Z,1013.79
2022-10-29T17:53:06.785Z,1013.83
2022-10-29T17:54:06.798Z,1013.82
2022-10-29T17:55:06.799Z,1013.84
2022-10-29T17:56:06.809Z,1013.80
2022-10-29T17:57:06.817Z,1013.80
2022-10-29T17:58:06.836Z,1013.78
2022-10-29T17:59:06.836Z,1013.75
2022-10-29T18:00:06.845Z,1013.79
2022-10-29T18:01:07.043Z,1013.80
2022-10-29T18:02:06.989Z,1013.85
2022-10-29T18:03:06.874Z,1013.81
2022-10-29T18:04:06.912Z,1013.81
2022-10-29T18:05:06.900Z,1013.83
2022-10-29T18:06:06.903Z,1013.83
2022-10-29T18:07:06.912Z,1013.82
2022-10-29T18:08:06.924Z,1013.81
2022-10-29T18:09:06.937Z,1013.83
2022-10-29T18:10:06.939Z,1013.84
2022-10-29T18:11:06.949Z,1013.81
2022-10-29T18:12:06.959Z,1013.82
2022-10-29T18:13:06.970Z,1013.80
2022-10-29T18:14:06.985Z,1013.79
2022-10-29T18:15:06.994Z,1013.81
2022-10-29T18:16:07.003Z,1013.76
2022-10-29T18:17:07.014Z,1013.80
2022-10-29T18:18:07.023Z,1013.81
2022-10-29T18:19:07.023Z,1013.81
2022-10-29T18:20:07.058Z,1013.82
2022-10-29T18:21:07.043Z,1013.85
2022-10-29T18:22:07.061Z,1013.87
2022-10-29T18:23:07.071Z,1013.88
2022-10-29T18:24:07.073Z,1013.88
2022-10-29T18:25:07.088Z,1013.87
2022-10-29T18:26:07.097Z,1013.87
2022-10-29T18:27:07.099Z,1013.85
2022-10-29T18:28:07.117Z,1013.83
2022-10-29T18:29:07.117Z,1013.80
2022-10-29T18:30:07.129Z,1013.86
2022-10-29T18:31:07.145Z,1013.82
2022-10-29T18:32:07.148Z,1013.82
2022-10-29T18:33:07.198Z,1013.82
2022-10-29T18:34:07.176Z,1013.83
2022-10-29T18:35:07.188Z,1013.86
2022-10-29T18:36:07.205Z,1013.85
2022-10-29T18:37:07.200Z,1013.82
2022-10-29T18:38:07.212Z,1013.81
2022-10-29T18:39:07.217Z,1013.79
2022-10-29T18:40:07.233Z,1013.77
2022-10-29T18:41:07.230Z,1013.78
2022-10-29T18:42:07.239Z,1013.78
2022-10-29T18:43:08.261Z,1013.79
2022-10-29T18:53:45.794Z,1013.85
2022-10-29T18:54:45.843Z,1013.82
2022-10-29T18:55:45.784Z,1013.80
2022-10-29T18:56:45.798Z,1013.79
2022-10-29T18:57:45.802Z,1013.81
2022-10-29T18:58:45.807Z,1013.80
2022-10-29T18:59:45.819Z,1013.80
2022-10-29T19:00:45.982Z,1013.76
2022-10-29T19:01:45.899Z,1013.78
2022-10-29T19:02:45.845Z,1013.76
2022-10-29T19:03:45.856Z,1013.72
2022-10-29T19:04:45.863Z,1013.70
2022-10-29T19:05:45.874Z,1013.70
2022-10-29T19:06:45.892Z,1013.71
2022-10-29T19:07:45.900Z,1013.70
2022-10-29T19:08:45.900Z,1013.68
2022-10-29T19:09:45.930Z,1013.69
2022-10-29T19:10:45.919Z,1013.70
2022-10-29T19:11:45.929Z,1013.69
2022-10-29T19:12:45.937Z,1013.74
2022-10-29T19:13:45.953Z,1013.74
2022-10-29T19:14:45.960Z,1013.76
2022-10-29T19:15:45.964Z,1013.78
2022-10-29T19:16:45.984Z,1013.76
2022-10-29T19:17:45.981Z,1013.77
2022-10-29T19:18:45.990Z,1013.74
2022-10-29T19:19:45.999Z,1013.75
2022-10-29T19:20:46.014Z,1013.72
2022-10-29T19:21:46.016Z,1013.71
2022-10-29T19:22:46.042Z,1013.73
2022-10-29T19:23:46.034Z,1013.71